sensor_id;sensor_type;location;lat;lon;timestamp;temperature;humidity
2855;DHT22;1435;49.472;10.940;2024-01-07T00:03:43;6.50;99.90
2855;DHT22;1435;49.472;10.940;2024-01-07T00:08:45;6.50;99.90
2855;DHT22;1435;49.472;10.940;2024-01-07T00:13:47;6.50;99.90
2855;DHT22;1435;49.472;10.940;2024-01-07T00:18:50;6.50;99.90
2855;DHT22;1435;49.472;10.940;2024-01-07T00:23:52;6.50;99.90
2855;DHT22;1435;49.472;10.940;2024-01-07T00:28:54;6.40;99.90
2855;DHT22;1435;49.472;10.940;2024-01-07T00:33:57;6.40;99.90
2855;DHT22;1435;49.472;10.940;2024-01-07T00:38:59;6.40;99.90
2855;DHT22;1435;49.472;10.940;2024-01-07T00:44:01;6.40;99.90
2855;DHT22;1435;49.472;10.940;2024-01-07T00:49:04;6.50;99.90
2855;DHT22;1435;49.472;10.940;2024-01-07T00:54:05;6.40;99.90
2855;DHT22;1435;49.472;10.940;2024-01-07T00:59:07;6.50;99.90
2855;DHT22;1435;49.472;10.940;2024-01-07T01:04:10;6.50;99.90
2855;DHT22;1435;49.472;10.940;2024-01-07T01:09:12;6.50;99.90
2855;DHT22;1435;49.472;10.940;2024-01-07T01:14:14;6.50;99.90
2855;DHT22;1435;49.472;10.940;2024-01-07T01:19:17;6.50;99.90
2855;DHT22;1435;49.472;10.940;2024-01-07T01:24:19;6.40;99.90
2855;DHT22;1435;49.472;10.940;2024-01-07T01:29:20;6.40;99.90
2855;DHT22;1435;49.472;10.940;2024-01-07T01:34:23;6.40;99.90
2855;DHT22;1435;49.472;10.940;2024-01-07T01:39:25;6.40;99.90
2855;DHT22;1435;49.472;10.940;2024-01-07T01:44:27;6.50;99.90
2855;DHT22;1435;49.472;10.940;2024-01-07T01:49:30;6.50;99.90
2855;DHT22;1435;49.472;10.940;2024-01-07T01:54:32;6.50;99.90
2855;DHT22;1435;49.472;10.940;2024-01-07T01:59:34;6.50;99.90
2855;DHT22;1435;49.472;10.940;2024-01-07T02:04:37;6.50;99.90
2855;DHT22;1435;49.472;10.940;2024-01-07T02:09:39;6.50;99.90
2855;DHT22;1435;49.472;10.940;2024-01-07T02:14:41;6.40;99.90
2855;DHT22;1435;49.472;10.940;2024-01-07T02:19:44;6.40;99.90
2855;DHT22;1435;49.472;10.940;2024-01-07T02:24:47;6.40;99.90
2855;DHT22;1435;49.472;10.940;2024-01-07T02:29:48;6.40;99.90
2855;DHT22;1435;49.472;10.940;2024-01-07T02:34:50;6.40;99.90
2855;DHT22;1435;49.472;10.940;2024-01-07T02:39:53;6.40;99.90
2855;DHT22;1435;49.472;10.940;2024-01-07T02:44:55;6.40;99.90
2855;DHT22;1435;49.472;10.940;2024-01-07T02:49:56;6.40;99.90
2855;DHT22;1435;49.472;10.940;2024-01-07T02:55:00;6.40;99.90
2855;DHT22;1435;49.472;10.940;2024-01-07T03:00:03;6.40;99.90
2855;DHT22;1435;49.472;10.940;2024-01-07T03:05:07;6.40;99.90
2855;DHT22;1435;49.472;10.940;2024-01-07T03:10:10;6.40;99.90
2855;DHT22;1435;49.472;10.940;2024-01-07T03:15:12;6.40;99.90
2855;DHT22;1435;49.472;10.940;2024-01-07T03:20:13;6.40;99.90
2855;DHT22;1435;49.472;10.940;2024-01-07T03:25:16;6.40;99.90
2855;DHT22;1435;49.472;10.940;2024-01-07T03:30:18;6.30;99.90
2855;DHT22;1435;49.472;10.940;2024-01-07T03:35:20;6.20;99.90
2855;DHT22;1435;49.472;10.940;2024-01-07T03:40:23;6.20;99.90
2855;DHT22;1435;49.472;10.940;2024-01-07T03:45:25;6.20;99.90
2855;DHT22;1435;49.472;10.940;2024-01-07T03:50:27;6.20;99.90
2855;DHT22;1435;49.472;10.940;2024-01-07T03:55:30;6.20;99.90
2855;DHT22;1435;49.472;10.940;2024-01-07T04:00:31;6.20;99.90
2855;DHT22;1435;49.472;10.940;2024-01-07T04:05:33;6.10;99.90
2855;DHT22;1435;49.472;10.940;2024-01-07T04:10:36;6.10;99.90
2855;DHT22;1435;49.472;10.940;2024-01-07T04:15:38;6.20;99.90
2855;DHT22;1435;49.472;10.940;2024-01-07T04:20:39;6.10;99.90
2855;DHT22;1435;49.472;10.940;2024-01-07T04:25:42;6.10;99.90
2855;DHT22;1435;49.472;10.940;2024-01-07T04:30:45;6.10;99.90
2855;DHT22;1435;49.472;10.940;2024-01-07T04:35:49;6.10;99.90
2855;DHT22;1435;49.472;10.940;2024-01-07T04:40:52;6.10;99.90
2855;DHT22;1435;49.472;10.940;2024-01-07T04:45:53;6.10;99.90
2855;DHT22;1435;49.472;10.940;2024-01-07T04:50:55;6.00;99.90
2855;DHT22;1435;49.472;10.940;2024-01-07T04:55:58;6.00;99.90
2855;DHT22;1435;49.472;10.940;2024-01-07T05:01:00;6.00;99.90
2855;DHT22;1435;49.472;10.940;2024-01-07T05:06:01;6.00;99.90
2855;DHT22;1435;49.472;10.940;2024-01-07T05:11:05;5.90;99.90
2855;DHT22;1435;49.472;10.940;2024-01-07T05:16:06;5.90;99.90
2855;DHT22;1435;49.472;10.940;2024-01-07T05:21:08;5.80;99.90
2855;DHT22;1435;49.472;10.940;2024-01-07T05:26:11;5.80;99.90
2855;DHT22;1435;49.472;10.940;2024-01-07T05:31:15;5.80;99.90
2855;DHT22;1435;49.472;10.940;2024-01-07T05:36:17;5.70;99.90
2855;DHT22;1435;49.472;10.940;2024-01-07T05:41:20;5.70;99.90
2855;DHT22;1435;49.472;10.940;2024-01-07T05:46:22;5.60;99.90
2855;DHT22;1435;49.472;10.940;2024-01-07T05:51:24;5.60;99.90
2855;DHT22;1435;49.472;10.940;2024-01-07T05:56:27;5.50;99.90
2855;DHT22;1435;49.472;10.940;2024-01-07T06:01:29;5.50;99.90
2855;DHT22;1435;49.472;10.940;2024-01-07T06:06:31;5.40;99.90
2855;DHT22;1435;49.472;10.940;2024-01-07T06:11:35;5.40;99.90
2855;DHT22;1435;49.472;10.940;2024-01-07T06:16:37;5.40;99.90
2855;DHT22;1435;49.472;10.940;2024-01-07T06:21:39;5.40;99.90
2855;DHT22;1435;49.472;10.940;2024-01-07T06:26:42;5.30;99.90
2855;DHT22;1435;49.472;10.940;2024-01-07T06:31:44;5.20;99.90
2855;DHT22;1435;49.472;10.940;2024-01-07T06:36:46;5.00;99.90
2855;DHT22;1435;49.472;10.940;2024-01-07T06:41:49;5.00;99.90
2855;DHT22;1435;49.472;10.940;2024-01-07T06:46:50;5.00;99.90
2855;DHT22;1435;49.472;10.940;2024-01-07T06:51:52;4.90;99.90
2855;DHT22;1435;49.472;10.940;2024-01-07T06:56:55;5.00;99.90
2855;DHT22;1435;49.472;10.940;2024-01-07T07:01:57;5.10;99.90
2855;DHT22;1435;49.472;10.940;2024-01-07T07:06:59;5.10;99.90
2855;DHT22;1435;49.472;10.940;2024-01-07T07:12:03;5.10;99.90
2855;DHT22;1435;49.472;10.940;2024-01-07T07:17:04;5.00;99.90
2855;DHT22;1435;49.472;10.940;2024-01-07T07:22:06;5.00;99.90
2855;DHT22;1435;49.472;10.940;2024-01-07T07:27:09;5.00;99.90
2855;DHT22;1435;49.472;10.940;2024-01-07T07:32:10;5.00;99.90
2855;DHT22;1435;49.472;10.940;2024-01-07T07:37:12;5.00;99.90
2855;DHT22;1435;49.472;10.940;2024-01-07T07:42:16;4.90;99.90
2855;DHT22;1435;49.472;10.940;2024-01-07T07:47:18;4.90;99.90
2855;DHT22;1435;49.472;10.940;2024-01-07T07:52:21;4.90;99.90
2855;DHT22;1435;49.472;10.940;2024-01-07T07:57:27;4.90;99.90
2855;DHT22;1435;49.472;10.940;2024-01-07T08:02:29;4.90;99.90
2855;DHT22;1435;49.472;10.940;2024-01-07T08:07:30;4.80;99.90
2855;DHT22;1435;49.472;10.940;2024-01-07T08:12:33;4.90;99.90
2855;DHT22;1435;49.472;10.940;2024-01-07T08:17:35;4.80;99.90
2855;DHT22;1435;49.472;10.940;2024-01-07T08:22:37;4.80;99.90
2855;DHT22;1435;49.472;10.940;2024-01-07T08:27:42;4.80;99.90
2855;DHT22;1435;49.472;10.940;2024-01-07T08:32:44;4.80;99.90
2855;DHT22;1435;49.472;10.940;2024-01-07T08:37:46;4.80;99.90
2855;DHT22;1435;49.472;10.940;2024-01-07T08:42:49;4.80;99.90
2855;DHT22;1435;49.472;10.940;2024-01-07T08:47:51;4.80;99.90
2855;DHT22;1435;49.472;10.940;2024-01-07T08:52:52;4.80;99.90
2855;DHT22;1435;49.472;10.940;2024-01-07T08:57:55;4.80;99.90
2855;DHT22;1435;49.472;10.940;2024-01-07T09:02:57;4.80;99.90
2855;DHT22;1435;49.472;10.940;2024-01-07T09:07:59;4.70;99.90
2855;DHT22;1435;49.472;10.940;2024-01-07T09:13:03;4.60;99.90
2855;DHT22;1435;49.472;10.940;2024-01-07T09:18:05;4.60;99.90
2855;DHT22;1435;49.472;10.940;2024-01-07T09:23:07;4.50;99.90
2855;DHT22;1435;49.472;10.940;2024-01-07T09:28:10;4.40;99.90
2855;DHT22;1435;49.472;10.940;2024-01-07T09:33:11;4.40;99.90
2855;DHT22;1435;49.472;10.940;2024-01-07T09:38:15;4.40;99.90
2855;DHT22;1435;49.472;10.940;2024-01-07T09:43:18;4.40;99.90
2855;DHT22;1435;49.472;10.940;2024-01-07T09:48:20;4.30;99.90
2855;DHT22;1435;49.472;10.940;2024-01-07T09:53:25;4.30;99.90
2855;DHT22;1435;49.472;10.940;2024-01-07T09:58:29;4.30;99.90
2855;DHT22;1435;49.472;10.940;2024-01-07T10:03:30;4.20;99.90
2855;DHT22;1435;49.472;10.940;2024-01-07T10:08:32;4.20;99.90
2855;DHT22;1435;49.472;10.940;2024-01-07T10:13:35;4.20;99.90
2855;DHT22;1435;49.472;10.940;2024-01-07T10:18:37;4.20;99.90
2855;DHT22;1435;49.472;10.940;2024-01-07T10:23:39;4.30;99.90
2855;DHT22;1435;49.472;10.940;2024-01-07T10:28:42;4.30;99.90
2855;DHT22;1435;49.472;10.940;2024-01-07T10:33:44;4.20;99.90
2855;DHT22;1435;49.472;10.940;2024-01-07T10:38:46;4.20;99.90
2855;DHT22;1435;49.472;10.940;2024-01-07T10:43:49;4.20;99.90
2855;DHT22;1435;49.472;10.940;2024-01-07T10:48:54;4.10;99.90
2855;DHT22;1435;49.472;10.940;2024-01-07T10:53:56;4.10;99.90
2855;DHT22;1435;49.472;10.940;2024-01-07T10:58:59;4.10;99.90
2855;DHT22;1435;49.472;10.940;2024-01-07T11:04:06;4.10;99.90
2855;DHT22;1435;49.472;10.940;2024-01-07T11:09:19;4.10;99.90
2855;DHT22;1435;49.472;10.940;2024-01-07T11:14:37;4.10;99.90
2855;DHT22;1435;49.472;10.940;2024-01-07T11:19:49;4.10;99.90
2855;DHT22;1435;49.472;10.940;2024-01-07T11:24:52;4.10;99.90
2855;DHT22;1435;49.472;10.940;2024-01-07T11:29:56;3.90;99.90
2855;DHT22;1435;49.472;10.940;2024-01-07T11:34:58;3.90;99.90
2855;DHT22;1435;49.472;10.940;2024-01-07T11:39:59;3.80;99.90
2855;DHT22;1435;49.472;10.940;2024-01-07T11:45:03;3.70;99.90
2855;DHT22;1435;49.472;10.940;2024-01-07T11:50:06;3.70;99.90
2855;DHT22;1435;49.472;10.940;2024-01-07T11:55:08;3.60;99.90
2855;DHT22;1435;49.472;10.940;2024-01-07T12:00:12;3.60;99.90
2855;DHT22;1435;49.472;10.940;2024-01-07T12:05:15;3.60;99.90
2855;DHT22;1435;49.472;10.940;2024-01-07T12:10:17;3.60;99.90
2855;DHT22;1435;49.472;10.940;2024-01-07T12:15:20;3.60;99.90
2855;DHT22;1435;49.472;10.940;2024-01-07T12:20:24;3.60;99.90
2855;DHT22;1435;49.472;10.940;2024-01-07T12:25:25;3.70;99.90
2855;DHT22;1435;49.472;10.940;2024-01-07T12:30:28;3.60;99.90
2855;DHT22;1435;49.472;10.940;2024-01-07T12:35:31;3.60;99.90
2855;DHT22;1435;49.472;10.940;2024-01-07T12:40:33;3.60;99.90
2855;DHT22;1435;49.472;10.940;2024-01-07T12:45:36;3.60;99.90
2855;DHT22;1435;49.472;10.940;2024-01-07T12:50:38;3.60;99.90
2855;DHT22;1435;49.472;10.940;2024-01-07T12:55:40;3.60;99.90
2855;DHT22;1435;49.472;10.940;2024-01-07T13:00:43;3.60;99.90
2855;DHT22;1435;49.472;10.940;2024-01-07T13:05:45;3.60;99.90
2855;DHT22;1435;49.472;10.940;2024-01-07T13:10:49;3.60;99.90
2855;DHT22;1435;49.472;10.940;2024-01-07T13:15:52;3.50;99.90
2855;DHT22;1435;49.472;10.940;2024-01-07T13:20:53;3.50;99.90
2855;DHT22;1435;49.472;10.940;2024-01-07T13:25:55;3.50;99.90
2855;DHT22;1435;49.472;10.940;2024-01-07T13:30:58;3.50;99.90
2855;DHT22;1435;49.472;10.940;2024-01-07T13:36:00;3.40;99.90
2855;DHT22;1435;49.472;10.940;2024-01-07T13:41:03;3.40;99.90
2855;DHT22;1435;49.472;10.940;2024-01-07T13:46:06;3.40;99.90
2855;DHT22;1435;49.472;10.940;2024-01-07T13:51:09;3.40;99.90
2855;DHT22;1435;49.472;10.940;2024-01-07T13:56:11;3.30;99.90
2855;DHT22;1435;49.472;10.940;2024-01-07T14:01:14;3.20;99.90
2855;DHT22;1435;49.472;10.940;2024-01-07T14:06:16;3.30;99.90
2855;DHT22;1435;49.472;10.940;2024-01-07T14:11:18;3.30;99.90
2855;DHT22;1435;49.472;10.940;2024-01-07T14:16:21;3.30;99.90
2855;DHT22;1435;49.472;10.940;2024-01-07T14:21:24;3.30;99.90
2855;DHT22;1435;49.472;10.940;2024-01-07T14:26:26;3.20;99.90
2855;DHT22;1435;49.472;10.940;2024-01-07T14:31:29;3.20;99.90
2855;DHT22;1435;49.472;10.940;2024-01-07T14:36:31;3.20;99.90
2855;DHT22;1435;49.472;10.940;2024-01-07T14:41:32;3.20;99.90
2855;DHT22;1435;49.472;10.940;2024-01-07T14:46:36;3.10;99.90
2855;DHT22;1435;49.472;10.940;2024-01-07T14:51:38;3.20;99.90
2855;DHT22;1435;49.472;10.940;2024-01-07T14:56:39;3.10;99.90
2855;DHT22;1435;49.472;10.940;2024-01-07T15:01:44;3.20;99.90
2855;DHT22;1435;49.472;10.940;2024-01-07T15:06:46;3.20;99.90
2855;DHT22;1435;49.472;10.940;2024-01-07T15:11:49;3.20;99.90
2855;DHT22;1435;49.472;10.940;2024-01-07T15:16:52;3.10;99.90
2855;DHT22;1435;49.472;10.940;2024-01-07T15:21:54;3.10;99.90
2855;DHT22;1435;49.472;10.940;2024-01-07T15:26:56;3.10;99.90
2855;DHT22;1435;49.472;10.940;2024-01-07T15:31:59;3.20;99.90
2855;DHT22;1435;49.472;10.940;2024-01-07T15:37:01;3.10;99.90
2855;DHT22;1435;49.472;10.940;2024-01-07T15:42:03;3.10;99.90
2855;DHT22;1435;49.472;10.940;2024-01-07T15:47:06;3.00;99.90
2855;DHT22;1435;49.472;10.940;2024-01-07T15:52:09;3.00;99.90
2855;DHT22;1435;49.472;10.940;2024-01-07T15:57:10;3.00;99.90
2855;DHT22;1435;49.472;10.940;2024-01-07T16:02:14;3.00;99.90
2855;DHT22;1435;49.472;10.940;2024-01-07T16:07:16;3.00;99.90
2855;DHT22;1435;49.472;10.940;2024-01-07T16:12:17;3.00;99.90
2855;DHT22;1435;49.472;10.940;2024-01-07T16:17:20;3.00;99.90
2855;DHT22;1435;49.472;10.940;2024-01-07T16:22:22;2.90;99.90
2855;DHT22;1435;49.472;10.940;2024-01-07T16:27:23;3.00;99.90
2855;DHT22;1435;49.472;10.940;2024-01-07T16:32:26;3.00;99.90
2855;DHT22;1435;49.472;10.940;2024-01-07T16:37:28;2.90;99.90
2855;DHT22;1435;49.472;10.940;2024-01-07T16:42:30;2.80;99.90
2855;DHT22;1435;49.472;10.940;2024-01-07T16:47:33;2.80;99.90
2855;DHT22;1435;49.472;10.940;2024-01-07T16:52:35;2.60;99.90
2855;DHT22;1435;49.472;10.940;2024-01-07T16:57:37;2.60;99.90
2855;DHT22;1435;49.472;10.940;2024-01-07T17:02:40;2.60;99.90
2855;DHT22;1435;49.472;10.940;2024-01-07T17:07:41;2.60;99.90
2855;DHT22;1435;49.472;10.940;2024-01-07T17:12:43;2.60;99.90
2855;DHT22;1435;49.472;10.940;2024-01-07T17:17:46;2.60;99.90
2855;DHT22;1435;49.472;10.940;2024-01-07T17:22:48;2.50;99.90
2855;DHT22;1435;49.472;10.940;2024-01-07T17:27:49;2.40;99.90
2855;DHT22;1435;49.472;10.940;2024-01-07T17:32:52;2.40;99.90
2855;DHT22;1435;49.472;10.940;2024-01-07T17:37:54;2.40;99.90
2855;DHT22;1435;49.472;10.940;2024-01-07T17:42:56;2.40;99.90
2855;DHT22;1435;49.472;10.940;2024-01-07T17:48:00;2.40;99.90
2855;DHT22;1435;49.472;10.940;2024-01-07T17:53:04;2.20;99.90
2855;DHT22;1435;49.472;10.940;2024-01-07T17:58:08;2.20;99.90
2855;DHT22;1435;49.472;10.940;2024-01-07T18:03:12;2.00;99.90
2855;DHT22;1435;49.472;10.940;2024-01-07T18:08:14;2.10;99.90
2855;DHT22;1435;49.472;10.940;2024-01-07T18:13:16;2.10;99.90
2855;DHT22;1435;49.472;10.940;2024-01-07T18:18:19;2.00;99.90
2855;DHT22;1435;49.472;10.940;2024-01-07T18:23:21;2.00;99.90
2855;DHT22;1435;49.472;10.940;2024-01-07T18:28:23;1.90;99.90
2855;DHT22;1435;49.472;10.940;2024-01-07T18:33:26;1.90;99.90
2855;DHT22;1435;49.472;10.940;2024-01-07T18:38:29;1.80;99.90
2855;DHT22;1435;49.472;10.940;2024-01-07T18:43:31;1.80;99.90
2855;DHT22;1435;49.472;10.940;2024-01-07T18:48:34;1.80;99.90
2855;DHT22;1435;49.472;10.940;2024-01-07T18:53:36;1.70;99.90
2855;DHT22;1435;49.472;10.940;2024-01-07T18:58:38;1.70;99.90
2855;DHT22;1435;49.472;10.940;2024-01-07T19:03:41;1.70;99.90
2855;DHT22;1435;49.472;10.940;2024-01-07T19:08:43;1.60;99.90
2855;DHT22;1435;49.472;10.940;2024-01-07T19:13:45;1.50;99.90
2855;DHT22;1435;49.472;10.940;2024-01-07T19:18:48;1.50;99.90
2855;DHT22;1435;49.472;10.940;2024-01-07T19:23:50;1.50;99.90
2855;DHT22;1435;49.472;10.940;2024-01-07T19:28:51;1.60;99.90
2855;DHT22;1435;49.472;10.940;2024-01-07T19:33:54;1.60;99.90
2855;DHT22;1435;49.472;10.940;2024-01-07T19:38:56;1.60;99.90
2855;DHT22;1435;49.472;10.940;2024-01-07T19:44:03;1.50;99.90
2855;DHT22;1435;49.472;10.940;2024-01-07T19:49:06;1.50;99.90
2855;DHT22;1435;49.472;10.940;2024-01-07T19:54:09;1.50;99.90
2855;DHT22;1435;49.472;10.940;2024-01-07T19:59:11;1.50;99.90
2855;DHT22;1435;49.472;10.940;2024-01-07T20:04:14;1.50;99.90
2855;DHT22;1435;49.472;10.940;2024-01-07T20:09:16;1.50;99.90
2855;DHT22;1435;49.472;10.940;2024-01-07T20:14:18;1.50;99.90
2855;DHT22;1435;49.472;10.940;2024-01-07T20:19:21;1.50;99.90
2855;DHT22;1435;49.472;10.940;2024-01-07T20:24:22;1.50;99.90
2855;DHT22;1435;49.472;10.940;2024-01-07T20:29:24;1.50;99.90
2855;DHT22;1435;49.472;10.940;2024-01-07T20:34:29;1.40;99.90
2855;DHT22;1435;49.472;10.940;2024-01-07T20:39:30;1.40;99.90
2855;DHT22;1435;49.472;10.940;2024-01-07T20:44:33;1.40;99.90
2855;DHT22;1435;49.472;10.940;2024-01-07T20:49:36;1.40;99.90
2855;DHT22;1435;49.472;10.940;2024-01-07T20:54:38;1.40;99.90
2855;DHT22;1435;49.472;10.940;2024-01-07T20:59:42;1.40;99.90
2855;DHT22;1435;49.472;10.940;2024-01-07T21:04:45;1.40;99.90
2855;DHT22;1435;49.472;10.940;2024-01-07T21:09:47;1.30;99.90
2855;DHT22;1435;49.472;10.940;2024-01-07T21:14:48;1.30;99.90
2855;DHT22;1435;49.472;10.940;2024-01-07T21:19:51;1.30;99.90
2855;DHT22;1435;49.472;10.940;2024-01-07T21:24:53;1.30;99.90
2855;DHT22;1435;49.472;10.940;2024-01-07T21:29:55;1.30;99.90
2855;DHT22;1435;49.472;10.940;2024-01-07T21:34:58;1.40;99.90
2855;DHT22;1435;49.472;10.940;2024-01-07T21:40:00;1.40;99.90
2855;DHT22;1435;49.472;10.940;2024-01-07T21:45:02;1.30;99.90
2855;DHT22;1435;49.472;10.940;2024-01-07T21:50:07;1.30;99.90
2855;DHT22;1435;49.472;10.940;2024-01-07T21:55:09;1.20;99.90
2855;DHT22;1435;49.472;10.940;2024-01-07T22:00:11;1.20;99.90
2855;DHT22;1435;49.472;10.940;2024-01-07T22:05:15;1.20;99.90
2855;DHT22;1435;49.472;10.940;2024-01-07T22:10:16;1.20;99.90
2855;DHT22;1435;49.472;10.940;2024-01-07T22:15:18;1.20;99.90
2855;DHT22;1435;49.472;10.940;2024-01-07T22:20:21;1.20;99.90
2855;DHT22;1435;49.472;10.940;2024-01-07T22:25:22;1.30;99.90
2855;DHT22;1435;49.472;10.940;2024-01-07T22:30:24;1.30;99.90
2855;DHT22;1435;49.472;10.940;2024-01-07T22:35:27;1.30;99.90
2855;DHT22;1435;49.472;10.940;2024-01-07T22:40:29;1.30;99.90
2855;DHT22;1435;49.472;10.940;2024-01-07T22:45:32;1.30;99.90
2855;DHT22;1435;49.472;10.940;2024-01-07T22:50:35;1.30;99.90
2855;DHT22;1435;49.472;10.940;2024-01-07T22:55:37;1.30;99.90
2855;DHT22;1435;49.472;10.940;2024-01-07T23:00:39;1.30;99.90
2855;DHT22;1435;49.472;10.940;2024-01-07T23:05:43;1.30;99.90
2855;DHT22;1435;49.472;10.940;2024-01-07T23:10:45;1.30;99.90
2855;DHT22;1435;49.472;10.940;2024-01-07T23:15:47;1.30;99.90
2855;DHT22;1435;49.472;10.940;2024-01-07T23:20:50;1.30;99.90
2855;DHT22;1435;49.472;10.940;2024-01-07T23:25:52;1.40;99.90
2855;DHT22;1435;49.472;10.940;2024-01-07T23:30:55;1.40;99.90
2855;DHT22;1435;49.472;10.940;2024-01-07T23:35:58;1.30;99.90
2855;DHT22;1435;49.472;10.940;2024-01-07T23:41:06;1.20;99.90
2855;DHT22;1435;49.472;10.940;2024-01-07T23:46:08;1.30;99.90
2855;DHT22;1435;49.472;10.940;2024-01-07T23:51:11;1.40;99.90
2855;DHT22;1435;49.472;10.940;2024-01-07T23:56:13;1.30;99.90
